This is the latest recevied weather packets stored in our database for station/object BMCB-34. If no packets are shown the sender has not sent any weather packets the latest 10 day(s).
| Time | Temp. | Humidity | Pressure | Rain* | Wind** | Luminosity | Snow |
|---|---|---|---|---|---|---|---|
| 1777814424 | 16.11° C | 69% | 1009.2 hPa | 0 mm | - | 144 W/m² | - |
| 1777813223 | 17.22° C | 61% | 1009.1 hPa | 0 mm | - | 138 W/m² | - |
| 1777812624 | 17.78° C | 57% | 1008.9 hPa | 0 mm | - | 124 W/m² | - |
| 1777811419 | 18.33° C | 52% | 1008.7 hPa | 0 mm | - | 322 W/m² | - |
| 1777807822 | 18.33° C | 51% | 1008.6 hPa | 0 mm | - | 456 W/m² | - |
| 1777806624 | 17.78° C | 55% | 1008.7 hPa | 0 mm | - | 580 W/m² | - |
| 1777805421 | 16.67° C | 58% | 1009 hPa | 0 mm | - | 378 W/m² | - |
| 1777804224 | 16.11° C | 60% | 1009.2 hPa | 0 mm | - | 210 W/m² | - |
| 1777800021 | 17.78° C | 50% | 1008.8 hPa | 0 mm | - | 294 W/m² | - |
| 1777798223 | 17.78° C | 48% | 1008.8 hPa | 0 mm | - | 320 W/m² | - |
| 1777797023 | 18.33° C | 47% | 1008.8 hPa | 0 mm | - | 408 W/m² | - |
| 1777792823 | 16.11° C | 52% | 1008.6 hPa | 0 mm | - | 176 W/m² | - |
| 1777792224 | 16.11° C | 52% | 1008.6 hPa | 0 mm | - | 128 W/m² | - |
| 1777788024 | 15° C | 57% | 1008.4 hPa | 0 mm | - | 86 W/m² | - |
| 1777786825 | 13.33° C | 66% | 1008.5 hPa | 0 mm | - | 46 W/m² | - |
| 1777785626 | 13.33° C | 67% | 1008.6 hPa | 0 mm | - | 20 W/m² | - |
| 1777777823 | 12.78° C | 64% | 1008.9 hPa | 0 mm | - | 0 W/m² | - |
| 1777776032 | 12.78° C | 67% | 1009 hPa | 0 mm | - | 0 W/m² | - |
| 1777773029 | 12.78° C | 70% | 1009.3 hPa | 0 mm | - | 0 W/m² | - |
| 1777770628 | 12.78° C | 68% | 1009.6 hPa | 0 mm | - | 0 W/m² | - |
| 1777770030 | 12.78° C | 68% | 1009.5 hPa | 0 mm | - | 0 W/m² | - |
| 1777768228 | 13.33° C | 65% | 1009.8 hPa | 0 mm | - | 0 W/m² | - |
| 1777767030 | 14.44° C | 60% | 1009.9 hPa | 0 mm | - | 0 W/m² | - |
| 1777758032 | 15° C | 61% | 1010 hPa | 0 mm | - | 0 W/m² | - |
| 1777756234 | 15.56° C | 61% | 1010.1 hPa | 0 mm | - | 0 W/m² | - |
* Rain latest hour (hover to see other rain measurements)
** Current wind speed in m/s (hover to see current wind gust speed)